Time;durP1;ratioP1;P1;durP2;ratioP2;P2;SDS_P1;SDS_P2;PMS_P1;PMS_P2;Temp;Humidity;BMP_temperature;BMP_pressure;BME280_temperature;BME280_humidity;BME280_pressure;Samples;Min_cycle;Max_cycle;Signal;HPM_P1;HPM_P2
2023/03/04 00:02:04;;;;;;;;;;;16.90;61.50;;;;;;5040075;28;1286;-69
2023/03/04 00:04:30;;;;;;;;;;;17.00;61.60;;;;;;5073155;28;1151;-69
2023/03/04 00:06:55;;;;;;;;;;;17.00;61.50;;;;;;5039262;28;982;-69
2023/03/04 00:09:21;;;;;;;;;;;17.00;61.50;;;;;;5038373;28;1930;-69
2023/03/04 00:11:46;;;;;;;;;;;17.00;61.50;;;;;;5073324;28;1272;-69
2023/03/04 00:14:11;;;;;;;;;;;17.00;61.60;;;;;;5037288;28;986;-69
2023/03/04 00:16:37;;;;;;;;;;;17.00;61.50;;;;;;5038723;28;780;-69
2023/03/04 00:19:02;;;;;;;;;;;17.00;61.50;;;;;;5039535;28;893;-68
2023/03/04 00:21:28;;;;;;;;;;;17.00;61.50;;;;;;5037196;28;1295;-69
2023/03/04 00:23:53;;;;;;;;;;;17.00;61.50;;;;;;5038505;28;1378;-69
2023/03/04 00:26:19;;;;;;;;;;;17.00;61.50;;;;;;5040414;28;1011;-69
2023/03/04 00:28:44;;;;;;;;;;;17.00;61.50;;;;;;5070224;28;1894;-69
2023/03/04 00:31:10;;;;;;;;;;;16.90;61.50;;;;;;5037723;28;1536;-69
2023/03/04 00:33:35;;;;;;;;;;;16.90;61.50;;;;;;5070523;28;835;-69
2023/03/04 00:36:01;;;;;;;;;;;16.90;61.50;;;;;;5071648;28;1346;-69
2023/03/04 00:38:26;;;;;;;;;;;17.00;61.60;;;;;;5040461;28;1362;-69
2023/03/04 00:40:52;;;;;;;;;;;16.90;61.50;;;;;;5043823;28;842;-69
2023/03/04 00:43:17;;;;;;;;;;;16.90;61.50;;;;;;5044519;28;1320;-69
2023/03/04 00:45:43;;;;;;;;;;;16.90;61.60;;;;;;5040983;28;875;-69
2023/03/04 00:48:08;;;;;;;;;;;16.90;61.60;;;;;;5044922;28;1211;-68
2023/03/04 00:50:34;;;;;;;;;;;16.90;61.60;;;;;;5042519;28;1910;-68
2023/03/04 00:53:00;;;;;;;;;;;16.90;61.60;;;;;;5043573;28;1296;-68
2023/03/04 00:55:26;;;;;;;;;;;16.90;61.60;;;;;;5036612;28;928;-68
2023/03/04 00:57:51;;;;;;;;;;;16.90;61.60;;;;;;5075780;28;974;-68
2023/03/04 01:00:17;;;;;;;;;;;16.90;61.60;;;;;;5039773;28;1055;-68
2023/03/04 01:02:42;;;;;;;;;;;16.90;61.60;;;;;;5039052;28;1231;-68
2023/03/04 01:05:08;;;;;;;;;;;16.90;61.60;;;;;;5039560;28;1209;-68
2023/03/04 01:07:33;;;;;;;;;;;16.90;61.60;;;;;;5043126;28;973;-68
2023/03/04 01:09:59;;;;;;;;;;;16.90;61.60;;;;;;5037932;28;1970;-68
2023/03/04 01:12:24;;;;;;;;;;;16.90;61.60;;;;;;5038462;28;1249;-68
2023/03/04 01:14:50;;;;;;;;;;;16.90;61.60;;;;;;5037308;28;942;-68
2023/03/04 01:17:15;;;;;;;;;;;16.90;61.60;;;;;;5039874;28;855;-68
2023/03/04 01:19:41;;;;;;;;;;;16.90;61.60;;;;;;5039110;28;1074;-68
2023/03/04 01:22:06;;;;;;;;;;;16.90;61.60;;;;;;5040942;28;1334;-68
2023/03/04 01:24:31;;;;;;;;;;;16.90;61.60;;;;;;5039750;28;1023;-68
2023/03/04 01:26:57;;;;;;;;;;;16.90;61.60;;;;;;5040559;28;963;-68
2023/03/04 01:29:22;;;;;;;;;;;16.90;61.60;;;;;;5040243;28;2181;-68
2023/03/04 01:31:48;;;;;;;;;;;16.90;61.70;;;;;;5042768;28;1314;-68
2023/03/04 01:34:13;;;;;;;;;;;16.90;61.70;;;;;;5039938;28;1507;-68
2023/03/04 01:36:39;;;;;;;;;;;16.90;61.70;;;;;;5042002;28;1413;-68
2023/03/04 01:39:04;;;;;;;;;;;16.90;61.70;;;;;;5037772;28;920;-68
2023/03/04 01:41:30;;;;;;;;;;;16.90;61.70;;;;;;5037190;28;1248;-69
2023/03/04 01:43:56;;;;;;;;;;;16.90;61.70;;;;;;5071582;28;942;-68
2023/03/04 01:46:21;;;;;;;;;;;16.90;61.70;;;;;;5075368;28;819;-68
2023/03/04 01:48:46;;;;;;;;;;;16.90;61.70;;;;;;5036293;28;1914;-68
2023/03/04 01:51:16;;;;;;;;;;;16.90;61.80;;;;;;5071372;28;1255;-68
2023/03/04 01:53:41;;;;;;;;;;;16.90;61.70;;;;;;5073126;28;808;-68
2023/03/04 01:56:27;;;;;;;;;;;16.90;61.70;;;;;;5038221;28;978;-68
2023/03/04 01:59:11;;;;;;;;;;;16.90;61.80;;;;;;5068973;28;851;-68
2023/03/04 02:01:37;;;;;;;;;;;16.90;61.70;;;;;;5035555;28;1327;-68
2023/03/04 02:04:03;;;;;;;;;;;16.90;62.50;;;;;;5037350;28;804;-68
2023/03/04 02:06:28;;;;;;;;;;;16.90;61.80;;;;;;5076747;28;860;-68
2023/03/04 02:08:53;;;;;;;;;;;16.90;61.70;;;;;;5070523;28;1995;-68
2023/03/04 02:11:19;;;;;;;;;;;16.90;61.80;;;;;;5037782;28;1201;-68
2023/03/04 02:13:44;;;;;;;;;;;16.90;61.80;;;;;;5072588;28;836;-68
2023/03/04 02:16:10;;;;;;;;;;;16.90;61.80;;;;;;5037299;28;899;-68
2023/03/04 02:18:35;;;;;;;;;;;16.90;61.80;;;;;;5072085;28;891;-68
2023/03/04 02:21:07;;;;;;;;;;;16.90;61.80;;;;;;5038396;28;1237;-68
2023/03/04 02:23:36;;;;;;;;;;;16.90;61.80;;;;;;5069110;28;1274;-68
2023/03/04 02:26:20;;;;;;;;;;;16.90;61.80;;;;;;5039635;28;832;-68
2023/03/04 02:28:46;;;;;;;;;;;16.90;61.80;;;;;;5073040;28;1894;-69
2023/03/04 02:31:19;;;;;;;;;;;16.90;61.80;;;;;;5071124;28;1248;-69
2023/03/04 02:33:44;;;;;;;;;;;16.90;61.80;;;;;;5072070;28;973;-68
2023/03/04 02:36:10;;;;;;;;;;;16.90;61.80;;;;;;5043916;28;1026;-68
2023/03/04 02:38:35;;;;;;;;;;;16.90;61.80;;;;;;5075118;28;1281;-69
2023/03/04 02:41:01;;;;;;;;;;;16.90;61.80;;;;;;5041618;28;1241;-69
2023/03/04 02:43:26;;;;;;;;;;;16.90;61.90;;;;;;5073233;28;1041;-67
2023/03/04 02:45:52;;;;;;;;;;;16.90;61.80;;;;;;5072257;28;872;-67
2023/03/04 02:48:19;;;;;;;;;;;16.90;61.80;;;;;;5041668;28;872;-68
2023/03/04 02:50:46;;;;;;;;;;;16.90;61.80;;;;;;5071263;28;1898;-68
2023/03/04 02:53:11;;;;;;;;;;;16.90;61.80;;;;;;5039477;28;1292;-68
2023/03/04 02:55:37;;;;;;;;;;;16.80;61.80;;;;;;5073516;28;868;-70
2023/03/04 02:58:02;;;;;;;;;;;16.80;61.80;;;;;;5072013;28;1014;-69
2023/03/04 03:00:28;;;;;;;;;;;16.80;61.80;;;;;;5074179;28;903;-69
2023/03/04 03:02:55;;;;;;;;;;;16.80;61.90;;;;;;5074493;28;1347;-69
2023/03/04 03:05:22;;;;;;;;;;;16.90;61.90;;;;;;5046210;28;855;-69
2023/03/04 03:07:47;;;;;;;;;;;16.90;61.90;;;;;;5078757;28;1046;-68
2023/03/04 03:10:12;;;;;;;;;;;16.90;61.90;;;;;;5076766;28;1910;-69
2023/03/04 03:12:38;;;;;;;;;;;16.80;61.80;;;;;;5040153;28;1236;-69
2023/03/04 03:15:04;;;;;;;;;;;16.90;61.90;;;;;;5037922;28;824;-67
2023/03/04 03:17:29;;;;;;;;;;;16.80;61.80;;;;;;5040623;28;1034;-67
2023/03/04 03:19:55;;;;;;;;;;;16.80;61.80;;;;;;5037676;28;872;-67
2023/03/04 03:22:20;;;;;;;;;;;16.80;61.80;;;;;;5041927;28;1268;-68
2023/03/04 03:24:45;;;;;;;;;;;16.80;61.80;;;;;;5039063;28;1049;-67
2023/03/04 03:27:11;;;;;;;;;;;16.80;61.80;;;;;;5041016;28;894;-68
2023/03/04 03:29:36;;;;;;;;;;;16.80;61.80;;;;;;5039158;28;1968;-67
2023/03/04 03:32:02;;;;;;;;;;;16.80;61.80;;;;;;5041057;28;1225;-68
2023/03/04 03:34:27;;;;;;;;;;;16.90;61.90;;;;;;5039936;28;985;-68
2023/03/04 03:36:53;;;;;;;;;;;16.90;61.90;;;;;;5040284;28;1473;-67
2023/03/04 03:39:18;;;;;;;;;;;16.80;61.80;;;;;;5037374;28;887;-69
2023/03/04 03:41:44;;;;;;;;;;;16.80;61.80;;;;;;5041149;28;1499;-69
2023/03/04 03:44:09;;;;;;;;;;;16.90;61.90;;;;;;5039027;28;895;-69
2023/03/04 03:46:34;;;;;;;;;;;16.80;61.80;;;;;;5039388;28;1058;-69
2023/03/04 03:49:00;;;;;;;;;;;16.90;61.90;;;;;;5043365;28;1964;-69
2023/03/04 03:51:26;;;;;;;;;;;16.80;61.80;;;;;;5073375;28;1331;-69
2023/03/04 03:53:51;;;;;;;;;;;16.80;61.90;;;;;;5072500;28;764;-70
2023/03/04 03:56:16;;;;;;;;;;;16.80;61.80;;;;;;5071522;28;901;-69
2023/03/04 03:58:42;;;;;;;;;;;16.80;61.80;;;;;;5038510;28;859;-69
2023/03/04 04:01:08;;;;;;;;;;;16.80;61.80;;;;;;5074249;28;1360;-70
2023/03/04 04:03:33;;;;;;;;;;;16.80;61.80;;;;;;5040567;28;876;-69
2023/03/04 04:05:59;;;;;;;;;;;16.80;61.80;;;;;;5042828;28;1196;-69
2023/03/04 04:08:24;;;;;;;;;;;16.80;61.80;;;;;;5041351;28;942;-69
2023/03/04 04:10:50;;;;;;;;;;;16.80;61.90;;;;;;5037312;28;2040;-70
2023/03/04 04:13:15;;;;;;;;;;;16.80;61.80;;;;;;5070191;28;1283;-70
2023/03/04 04:15:41;;;;;;;;;;;16.80;61.80;;;;;;5039609;28;931;-71
2023/03/04 04:18:06;;;;;;;;;;;16.80;61.90;;;;;;5073404;28;806;-70
2023/03/04 04:20:32;;;;;;;;;;;16.80;61.90;;;;;;5073378;28;905;-70
2023/03/04 04:22:57;;;;;;;;;;;16.80;61.80;;;;;;5040514;28;1244;-70
2023/03/04 04:25:23;;;;;;;;;;;16.80;61.90;;;;;;5040983;28;879;-69
2023/03/04 04:27:48;;;;;;;;;;;16.80;61.90;;;;;;5040571;28;966;-69
2023/03/04 04:30:14;;;;;;;;;;;16.80;61.90;;;;;;5042196;28;1953;-69
2023/03/04 04:32:39;;;;;;;;;;;16.80;61.90;;;;;;5039628;28;1307;-69
2023/03/04 04:35:05;;;;;;;;;;;16.80;61.90;;;;;;5040556;28;1029;-69
2023/03/04 04:37:30;;;;;;;;;;;16.80;61.90;;;;;;5037971;28;942;-69
2023/03/04 04:39:56;;;;;;;;;;;16.80;61.90;;;;;;5041207;28;908;-69
2023/03/04 04:42:21;;;;;;;;;;;16.80;61.90;;;;;;5041299;28;1334;-69
2023/03/04 04:44:47;;;;;;;;;;;16.80;62.00;;;;;;5041280;28;986;-69
2023/03/04 04:47:12;;;;;;;;;;;16.80;61.90;;;;;;5071096;28;844;-69
2023/03/04 04:49:38;;;;;;;;;;;16.80;62.00;;;;;;5036091;28;1922;-69
2023/03/04 04:52:03;;;;;;;;;;;16.80;61.90;;;;;;5069004;28;1233;-69
2023/03/04 04:54:29;;;;;;;;;;;16.80;61.90;;;;;;5036742;28;828;-69
2023/03/04 04:56:54;;;;;;;;;;;16.80;62.00;;;;;;5036290;28;820;-70
2023/03/04 04:59:20;;;;;;;;;;;16.80;61.90;;;;;;5040004;28;959;-70
2023/03/04 05:01:45;;;;;;;;;;;16.80;61.90;;;;;;5039920;28;1257;-70
2023/03/04 05:04:11;;;;;;;;;;;16.80;61.90;;;;;;5071224;28;974;-69
2023/03/04 05:06:36;;;;;;;;;;;16.80;62.00;;;;;;5035279;28;1003;-69
2023/03/04 05:09:03;;;;;;;;;;;16.80;61.90;;;;;;5069097;28;1956;-69
2023/03/04 05:11:28;;;;;;;;;;;16.80;61.90;;;;;;5067633;28;1254;-69
2023/03/04 05:13:54;;;;;;;;;;;16.80;61.90;;;;;;5071649;28;903;-69
2023/03/04 05:16:19;;;;;;;;;;;16.80;61.80;;;;;;5038654;28;905;-70
2023/03/04 05:18:45;;;;;;;;;;;16.90;61.80;;;;;;5038667;28;876;-70
2023/03/04 05:21:10;;;;;;;;;;;16.90;61.70;;;;;;5038858;28;1227;-69
2023/03/04 05:23:36;;;;;;;;;;;16.90;61.60;;;;;;5038769;28;971;-69
2023/03/04 05:26:02;;;;;;;;;;;16.90;61.50;;;;;;5068948;28;1005;-69
2023/03/04 05:28:27;;;;;;;;;;;17.00;61.40;;;;;;5069223;28;879;-69
2023/03/04 05:30:53;;;;;;;;;;;17.00;61.40;;;;;;5039594;28;942;-70
2023/03/04 05:33:18;;;;;;;;;;;17.00;61.30;;;;;;5039761;28;1365;-69
2023/03/04 05:35:44;;;;;;;;;;;17.10;61.20;;;;;;5039188;28;948;-69
2023/03/04 05:38:10;;;;;;;;;;;17.10;61.10;;;;;;5040774;28;938;-69
2023/03/04 05:40:36;;;;;;;;;;;17.10;61.00;;;;;;5037959;28;848;-68
2023/03/04 05:43:02;;;;;;;;;;;17.10;61.00;;;;;;5072618;28;1248;-68
2023/03/04 05:45:27;;;;;;;;;;;17.10;60.90;;;;;;5038333;28;855;-68
2023/03/04 05:47:53;;;;;;;;;;;17.20;60.90;;;;;;5038059;28;788;-69
2023/03/04 05:50:18;;;;;;;;;;;17.10;60.80;;;;;;5072244;28;1978;-68
2023/03/04 05:52:44;;;;;;;;;;;17.10;60.70;;;;;;5037630;28;1339;-69
2023/03/04 05:55:09;;;;;;;;;;;17.20;60.80;;;;;;5069063;28;942;-69
2023/03/04 05:57:35;;;;;;;;;;;17.20;60.70;;;;;;5069847;28;958;-68
2023/03/04 06:00:00;;;;;;;;;;;17.20;60.70;;;;;;5034902;28;1003;-69
2023/03/04 06:02:26;;;;;;;;;;;17.20;60.60;;;;;;5040615;28;1366;-69
2023/03/04 06:04:51;;;;;;;;;;;17.20;60.60;;;;;;5075299;28;896;-69
2023/03/04 06:07:17;;;;;;;;;;;17.20;60.50;;;;;;5043534;28;1284;-69
2023/03/04 06:09:44;;;;;;;;;;;17.20;60.50;;;;;;5044734;28;1910;-69
2023/03/04 06:12:10;;;;;;;;;;;17.20;60.50;;;;;;5072377;28;1270;-69
2023/03/04 06:14:35;;;;;;;;;;;17.20;60.40;;;;;;5043683;28;815;-69
2023/03/04 06:17:01;;;;;;;;;;;17.20;60.40;;;;;;5043648;28;892;-69
2023/03/04 06:19:26;;;;;;;;;;;17.20;60.40;;;;;;5042131;28;1027;-68
2023/03/04 06:21:51;;;;;;;;;;;17.20;60.40;;;;;;5043263;28;1340;-69
2023/03/04 06:24:17;;;;;;;;;;;17.20;60.40;;;;;;5041689;28;1193;-69
2023/03/04 06:26:42;;;;;;;;;;;17.20;60.30;;;;;;5039829;28;828;-69
2023/03/04 06:29:08;;;;;;;;;;;17.30;60.40;;;;;;5044316;28;1898;-69
2023/03/04 06:31:33;;;;;;;;;;;17.20;60.30;;;;;;5042194;28;1363;-68
2023/03/04 06:33:59;;;;;;;;;;;17.30;60.40;;;;;;5042520;28;788;-68
2023/03/04 06:36:24;;;;;;;;;;;17.30;60.30;;;;;;5044149;28;1014;-68
2023/03/04 06:38:50;;;;;;;;;;;17.30;60.30;;;;;;5041331;28;1434;-68
2023/03/04 06:41:15;;;;;;;;;;;17.30;60.30;;;;;;5042797;28;1335;-68
2023/03/04 06:43:41;;;;;;;;;;;17.30;60.30;;;;;;5039022;28;1627;-68
2023/03/04 06:46:06;;;;;;;;;;;17.30;60.30;;;;;;5071942;28;840;-69
2023/03/04 06:48:32;;;;;;;;;;;17.30;60.30;;;;;;5072499;28;1906;-69
2023/03/04 06:50:57;;;;;;;;;;;17.30;60.30;;;;;;5074081;28;904;-69
2023/03/04 06:53:23;;;;;;;;;;;17.30;60.20;;;;;;5039936;28;847;-69
2023/03/04 06:55:49;;;;;;;;;;;17.30;60.20;;;;;;5038226;28;1010;-69
2023/03/04 06:58:16;;;;;;;;;;;17.30;60.30;;;;;;5072957;28;875;-69
2023/03/04 07:00:42;;;;;;;;;;;17.30;60.30;;;;;;5038573;28;824;-68
2023/03/04 07:03:07;;;;;;;;;;;17.30;60.20;;;;;;5039623;28;1275;-69
2023/03/04 07:05:33;;;;;;;;;;;17.30;60.20;;;;;;5073566;28;900;-68
2023/03/04 07:07:58;;;;;;;;;;;17.30;60.20;;;;;;5041230;28;899;-69
2023/03/04 07:10:24;;;;;;;;;;;17.30;60.30;;;;;;5039565;28;1965;-68
2023/03/04 07:12:49;;;;;;;;;;;17.30;60.20;;;;;;5070567;28;1358;-68
2023/03/04 07:15:15;;;;;;;;;;;17.30;60.30;;;;;;5039286;28;823;-67
2023/03/04 07:17:40;;;;;;;;;;;17.30;60.20;;;;;;5040046;28;847;-67
2023/03/04 07:20:07;;;;;;;;;;;17.30;60.30;;;;;;5039305;28;896;-67
2023/03/04 07:22:32;;;;;;;;;;;17.30;60.30;;;;;;5071340;28;1260;-68
2023/03/04 07:24:58;;;;;;;;;;;17.30;60.30;;;;;;5045079;28;931;-68
2023/03/04 07:27:24;;;;;;;;;;;17.30;60.30;;;;;;5041021;28;1049;-68
2023/03/04 07:29:49;;;;;;;;;;;17.30;60.30;;;;;;5038678;28;1989;-68
2023/03/04 07:32:15;;;;;;;;;;;17.30;60.30;;;;;;5041972;28;1205;-69
2023/03/04 07:34:40;;;;;;;;;;;17.20;60.30;;;;;;5039276;28;926;-68
2023/03/04 07:37:06;;;;;;;;;;;17.20;60.30;;;;;;5072511;28;1350;-68
2023/03/04 07:39:31;;;;;;;;;;;17.20;60.30;;;;;;5041820;28;863;-68
2023/03/04 07:41:57;;;;;;;;;;;17.20;60.40;;;;;;5039905;28;1256;-68
2023/03/04 07:44:22;;;;;;;;;;;17.30;60.50;;;;;;5041263;28;873;-68
2023/03/04 07:46:48;;;;;;;;;;;17.20;60.50;;;;;;5039866;28;1061;-67
2023/03/04 07:49:13;;;;;;;;;;;17.20;60.50;;;;;;5042049;28;1947;-68
2023/03/04 07:51:39;;;;;;;;;;;17.20;60.50;;;;;;5072111;28;1339;-68
2023/03/04 07:54:04;;;;;;;;;;;17.20;60.50;;;;;;5040381;28;818;-68
2023/03/04 07:56:30;;;;;;;;;;;17.20;60.60;;;;;;5040106;28;911;-68
2023/03/04 07:58:56;;;;;;;;;;;17.20;60.60;;;;;;5042467;28;809;-68
2023/03/04 08:01:23;;;;;;;;;;;17.20;60.60;;;;;;5038709;28;1278;-70
2023/03/04 08:03:48;;;;;;;;;;;17.20;60.70;;;;;;5073285;28;821;-69
2023/03/04 08:06:15;;;;;;;;;;;17.20;60.70;;;;;;5071828;28;1147;-69
2023/03/04 08:08:41;;;;;;;;;;;17.20;60.80;;;;;;5075290;28;1890;-70
2023/03/04 08:11:08;;;;;;;;;;;17.10;60.70;;;;;;5041835;28;1276;-70
2023/03/04 08:13:33;;;;;;;;;;;17.20;60.80;;;;;;5073383;28;860;-70
2023/03/04 08:15:59;;;;;;;;;;;17.10;60.80;;;;;;5038667;28;888;-70
2023/03/04 08:18:24;;;;;;;;;;;17.10;60.90;;;;;;5038782;28;1050;-70
2023/03/04 08:20:51;;;;;;;;;;;17.10;60.80;;;;;;5040938;28;1030;-70
2023/03/04 08:23:16;;;;;;;;;;;17.10;60.90;;;;;;5071618;28;1338;-70
2023/03/04 08:25:42;;;;;;;;;;;17.10;60.90;;;;;;5038912;28;1019;-70
2023/03/04 08:28:08;;;;;;;;;;;17.10;60.90;;;;;;5072499;28;899;-70
2023/03/04 08:30:33;;;;;;;;;;;17.10;61.00;;;;;;5036541;28;1910;-69
2023/03/04 08:32:59;;;;;;;;;;;17.10;61.00;;;;;;5041773;28;1221;-70
2023/03/04 08:35:25;;;;;;;;;;;17.10;61.00;;;;;;5073440;28;860;-70
2023/03/04 08:37:50;;;;;;;;;;;17.00;60.90;;;;;;5042207;28;1356;-70
2023/03/04 08:40:16;;;;;;;;;;;17.00;61.00;;;;;;5037515;28;876;-70
2023/03/04 08:42:41;;;;;;;;;;;17.10;61.10;;;;;;5041799;28;1221;-69
2023/03/04 08:45:07;;;;;;;;;;;17.00;61.10;;;;;;5041118;28;864;-69
2023/03/04 08:47:33;;;;;;;;;;;17.10;61.10;;;;;;5036940;28;1026;-70
2023/03/04 08:49:59;;;;;;;;;;;17.10;61.20;;;;;;5038752;28;1918;-70
2023/03/04 08:52:24;;;;;;;;;;;17.10;61.20;;;;;;5039628;28;1266;-70
2023/03/04 08:54:49;;;;;;;;;;;17.00;61.20;;;;;;5036790;28;1006;-70
2023/03/04 08:57:15;;;;;;;;;;;17.00;61.20;;;;;;5037556;28;833;-69
2023/03/04 08:59:40;;;;;;;;;;;17.00;61.20;;;;;;5038575;28;893;-71
2023/03/04 09:02:06;;;;;;;;;;;17.00;61.30;;;;;;5038615;28;1245;-70
2023/03/04 09:04:31;;;;;;;;;;;17.00;61.30;;;;;;5038096;28;1344;-70
2023/03/04 09:06:57;;;;;;;;;;;17.00;61.30;;;;;;5040125;28;902;-69
2023/03/04 09:09:22;;;;;;;;;;;17.00;61.30;;;;;;5039450;28;1969;-68
2023/03/04 09:11:48;;;;;;;;;;;17.00;61.40;;;;;;5071170;28;1276;-68
2023/03/04 09:14:13;;;;;;;;;;;17.00;61.30;;;;;;5038356;28;950;-68
2023/03/04 09:16:39;;;;;;;;;;;17.00;61.40;;;;;;5035570;28;812;-68
2023/03/04 09:19:04;;;;;;;;;;;17.00;61.40;;;;;;5046065;28;849;-67
2023/03/04 09:21:29;;;;;;;;;;;17.00;61.40;;;;;;5036401;28;1332;-68
2023/03/04 09:23:55;;;;;;;;;;;17.00;61.40;;;;;;5039276;28;1355;-68
2023/03/04 09:26:21;;;;;;;;;;;16.90;61.40;;;;;;5040355;28;942;-67
2023/03/04 09:28:54;;;;;;;;;;;16.90;61.40;;;;;;5068649;28;1898;-67
2023/03/04 09:31:20;;;;;;;;;;;16.90;61.40;;;;;;5041055;28;1334;-67
2023/03/04 09:33:45;;;;;;;;;;;17.00;61.50;;;;;;5038376;28;879;-68
2023/03/04 09:36:11;;;;;;;;;;;16.90;61.40;;;;;;5039314;28;838;-69
2023/03/04 09:38:37;;;;;;;;;;;17.00;61.40;;;;;;5043285;28;1081;-69
2023/03/04 09:41:06;;;;;;;;;;;17.00;61.40;;;;;;5045931;28;1300;-68
2023/03/04 09:43:32;;;;;;;;;;;17.00;61.40;;;;;;5077956;28;820;-69
2023/03/04 09:45:59;;;;;;;;;;;17.00;62.20;;;;;;5059604;28;1309;-68
2023/03/04 09:48:26;;;;;;;;;;;17.00;61.40;;;;;;5077589;28;902;-69
2023/03/04 09:50:58;;;;;;;;;;;17.00;61.40;;;;;;5045981;28;1954;-68
2023/03/04 09:53:24;;;;;;;;;;;17.00;61.30;;;;;;5044043;28;1465;-68
2023/03/04 09:55:50;;;;;;;;;;;17.00;61.30;;;;;;5043802;28;903;-67
2023/03/04 09:58:18;;;;;;;;;;;17.00;61.30;;;;;;5079481;28;938;-69
2023/03/04 10:00:45;;;;;;;;;;;17.00;61.20;;;;;;5044061;28;971;-68
2023/03/04 10:03:15;;;;;;;;;;;17.10;61.30;;;;;;5041501;28;1254;-67
2023/03/04 10:05:42;;;;;;;;;;;17.00;61.10;;;;;;5076580;28;1145;-67
2023/03/04 10:08:13;;;;;;;;;;;17.10;61.20;;;;;;5075811;28;821;-68
2023/03/04 10:10:39;;;;;;;;;;;17.10;61.10;;;;;;5042449;28;1906;-68
2023/03/04 10:13:05;;;;;;;;;;;17.10;61.10;;;;;;5076418;28;1300;-67
2023/03/04 10:15:33;;;;;;;;;;;17.10;61.10;;;;;;5076645;28;1382;-68
2023/03/04 10:18:02;;;;;;;;;;;17.10;61.10;;;;;;5056297;28;1441;-68
2023/03/04 10:20:44;;;;;;;;;;;17.10;61.00;;;;;;5075622;28;963;-69
2023/03/04 10:23:10;;;;;;;;;;;17.10;61.00;;;;;;5076767;28;1386;-68
2023/03/04 10:25:36;;;;;;;;;;;17.10;61.00;;;;;;5073327;28;859;-69
2023/03/04 10:28:01;;;;;;;;;;;17.10;60.90;;;;;;5075025;28;1256;-68
2023/03/04 10:30:27;;;;;;;;;;;17.10;60.90;;;;;;5046381;28;1894;-68
2023/03/04 10:32:54;;;;;;;;;;;17.10;60.80;;;;;;5046727;28;1316;-68
2023/03/04 10:35:20;;;;;;;;;;;17.10;60.80;;;;;;5043836;28;782;-68
2023/03/04 10:37:47;;;;;;;;;;;17.10;60.80;;;;;;5077840;28;1392;-68
2023/03/04 10:40:23;;;;;;;;;;;17.20;60.80;;;;;;5074669;28;1005;-68
2023/03/04 10:42:48;;;;;;;;;;;17.10;60.70;;;;;;5077520;28;1255;-68
2023/03/04 10:45:22;;;;;;;;;;;17.20;60.70;;;;;;5044940;28;1548;-68
2023/03/04 10:47:50;;;;;;;;;;;17.20;60.70;;;;;;5074582;28;935;-68
2023/03/04 10:50:20;;;;;;;;;;;17.20;60.60;;;;;;5039197;28;1973;-68
2023/03/04 10:52:46;;;;;;;;;;;17.20;60.60;;;;;;5038911;28;1387;-68
2023/03/04 10:55:15;;;;;;;;;;;17.20;60.60;;;;;;5070167;28;1585;-69
2023/03/04 10:57:41;;;;;;;;;;;17.20;60.70;;;;;;5042129;28;1031;-68
2023/03/04 11:00:16;;;;;;;;;;;17.20;60.50;;;;;;5040755;28;1065;-68
2023/03/04 11:02:41;;;;;;;;;;;17.20;60.60;;;;;;5042613;28;1276;-68
2023/03/04 11:05:20;;;;;;;;;;;17.20;60.60;;;;;;5038660;28;874;-68
2023/03/04 11:07:52;;;;;;;;;;;17.20;60.60;;;;;;5073504;28;884;-68
2023/03/04 11:10:19;;;;;;;;;;;17.20;60.60;;;;;;5041466;28;1918;-68
2023/03/04 11:12:48;;;;;;;;;;;17.20;60.60;;;;;;5041259;28;1608;-68
2023/03/04 11:15:18;;;;;;;;;;;17.20;60.60;;;;;;5042230;28;806;-68
2023/03/04 11:17:47;;;;;;;;;;;17.20;60.70;;;;;;5044205;28;800;-68
2023/03/04 11:20:31;;;;;;;;;;;17.20;60.70;;;;;;5038626;28;1038;-68
2023/03/04 11:22:58;;;;;;;;;;;17.20;60.70;;;;;;5044636;28;1356;-68
2023/03/04 11:25:25;;;;;;;;;;;17.20;60.70;;;;;;5073926;28;871;-68
2023/03/04 11:28:11;;;;;;;;;;;17.20;60.70;;;;;;5039532;28;836;-71
2023/03/04 11:30:38;;;;;;;;;;;17.20;60.70;;;;;;5071480;28;1898;-68
2023/03/04 11:33:07;;;;;;;;;;;17.20;60.70;;;;;;5075222;28;1327;-68
2023/03/04 11:35:52;;;;;;;;;;;17.20;60.70;;;;;;5070766;28;990;-68
2023/03/04 11:38:21;;;;;;;;;;;17.20;60.70;;;;;;5043557;28;978;-69
2023/03/04 11:40:53;;;;;;;;;;;17.20;60.70;;;;;;5075882;28;874;-69
2023/03/04 11:43:21;;;;;;;;;;;17.20;60.70;;;;;;5072090;28;1164;-68
2023/03/04 11:46:04;;;;;;;;;;;17.20;60.70;;;;;;5073466;28;1280;-68
2023/03/04 11:48:51;;;;;;;;;;;17.20;60.70;;;;;;5038497;28;856;-68
2023/03/04 11:51:26;;;;;;;;;;;17.20;60.60;;;;;;5071743;28;1509;-68
2023/03/04 11:54:11;;;;;;;;;;;17.20;60.60;;;;;;5074278;28;922;-69
2023/03/04 11:56:36;;;;;;;;;;;17.20;60.60;;;;;;5042651;28;879;-69
2023/03/04 11:59:05;;;;;;;;;;;17.20;60.50;;;;;;5039190;28;969;-68
2023/03/04 12:01:33;;;;;;;;;;;17.20;60.50;;;;;;5038944;28;1283;-68
2023/03/04 12:04:17;;;;;;;;;;;17.20;60.50;;;;;;5070927;28;966;-68
2023/03/04 12:06:45;;;;;;;;;;;17.20;60.50;;;;;;5036648;28;888;-69
2023/03/04 12:09:11;;;;;;;;;;;17.20;60.50;;;;;;5039750;28;1959;-68
2023/03/04 12:11:39;;;;;;;;;;;17.20;60.40;;;;;;5038434;28;1270;-68
2023/03/04 12:14:22;;;;;;;;;;;17.20;60.40;;;;;;5039656;28;907;-68
2023/03/04 12:16:52;;;;;;;;;;;17.20;60.40;;;;;;5040182;28;879;-68
2023/03/04 12:19:24;;;;;;;;;;;17.30;60.50;;;;;;5071508;28;1223;-68
2023/03/04 12:21:52;;;;;;;;;;;17.20;60.40;;;;;;5076638;28;1381;-68
2023/03/04 12:24:18;;;;;;;;;;;17.20;60.40;;;;;;5039300;28;1082;-68
2023/03/04 12:26:46;;;;;;;;;;;17.20;60.40;;;;;;5037378;28;943;-68
2023/03/04 12:29:12;;;;;;;;;;;17.20;60.50;;;;;;5039851;28;1902;-68
2023/03/04 12:31:41;;;;;;;;;;;17.30;60.60;;;;;;5038865;28;1354;-68
2023/03/04 12:34:19;;;;;;;;;;;17.20;60.50;;;;;;5073642;28;971;-68
2023/03/04 12:36:50;;;;;;;;;;;17.20;60.50;;;;;;5037202;28;1355;-68
2023/03/04 12:39:27;;;;;;;;;;;17.20;60.60;;;;;;5070930;28;852;-68
2023/03/04 12:41:56;;;;;;;;;;;17.20;60.60;;;;;;5068664;28;1271;-68
2023/03/04 12:44:21;;;;;;;;;;;17.20;60.70;;;;;;5040528;28;800;-68
2023/03/04 12:46:56;;;;;;;;;;;17.20;60.70;;;;;;5072758;28;827;-68
2023/03/04 12:49:42;;;;;;;;;;;17.20;60.70;;;;;;5036767;28;1910;-68
2023/03/04 12:52:11;;;;;;;;;;;17.20;60.80;;;;;;5070347;28;1318;-68
2023/03/04 12:54:40;;;;;;;;;;;17.10;60.70;;;;;;5039524;28;986;-69
2023/03/04 12:57:09;;;;;;;;;;;17.20;60.80;;;;;;5039402;28;1184;-68
2023/03/04 12:59:39;;;;;;;;;;;17.10;60.70;;;;;;5042550;28;835;-68
2023/03/04 13:02:23;;;;;;;;;;;17.20;60.80;;;;;;5070782;28;1290;-69
2023/03/04 13:04:52;;;;;;;;;;;17.20;60.80;;;;;;5035874;28;950;-68
2023/03/04 13:07:56;;;;;;;;;;;17.10;60.70;;;;;;5037296;28;1672;-69
2023/03/04 13:10:22;;;;;;;;;;;17.20;60.80;;;;;;5035469;28;1910;-69
2023/03/04 13:12:51;;;;;;;;;;;17.20;60.70;;;;;;5015914;28;1365;-68
2023/03/04 13:15:20;;;;;;;;;;;17.20;60.70;;;;;;5026594;28;1507;-68
2023/03/04 13:17:49;;;;;;;;;;;17.20;60.60;;;;;;5038835;28;840;-68
2023/03/04 13:20:47;;;;;;;;;;;17.20;60.60;;;;;;5039941;28;876;-69
2023/03/04 13:23:12;;;;;;;;;;;17.20;60.50;;;;;;5027381;28;1374;-69
2023/03/04 13:25:38;;;;;;;;;;;17.30;60.60;;;;;;5045571;28;872;-68
2023/03/04 13:28:14;;;;;;;;;;;17.20;60.50;;;;;;5035771;28;1437;-67
2023/03/04 13:30:41;;;;;;;;;;;17.30;60.50;;;;;;5039188;28;1913;-67
2023/03/04 13:33:07;;;;;;;;;;;17.20;60.40;;;;;;5041487;28;1359;-67
2023/03/04 13:35:44;;;;;;;;;;;17.20;60.40;;;;;;5040559;28;951;-68
2023/03/04 13:38:32;;;;;;;;;;;17.30;60.40;;;;;;5039086;28;1052;-68
2023/03/04 13:41:06;;;;;;;;;;;17.30;60.40;;;;;;5036845;28;907;-68
2023/03/04 13:43:44;;;;;;;;;;;17.30;60.30;;;;;;5040823;28;824;-68
2023/03/04 13:46:19;;;;;;;;;;;17.30;60.30;;;;;;5070842;28;848;-68
2023/03/04 13:48:50;;;;;;;;;;;17.30;60.30;;;;;;5040082;28;900;-68
2023/03/04 13:51:16;;;;;;;;;;;17.30;60.30;;;;;;5039256;28;1267;-68
2023/03/04 13:53:48;;;;;;;;;;;17.30;60.30;;;;;;5037648;28;1131;-69
2023/03/04 13:56:17;;;;;;;;;;;17.30;60.20;;;;;;5035241;28;902;-68
2023/03/04 13:58:42;;;;;;;;;;;17.30;60.20;;;;;;5037168;28;896;-68
2023/03/04 14:01:20;;;;;;;;;;;17.30;60.20;;;;;;5073338;28;1259;-69
2023/03/04 14:03:46;;;;;;;;;;;17.30;60.20;;;;;;5061436;28;1246;-69
2023/03/04 14:06:11;;;;;;;;;;;17.30;60.20;;;;;;5038022;28;908;-69
2023/03/04 14:08:37;;;;;;;;;;;17.30;60.10;;;;;;5037353;28;809;-68
2023/03/04 14:11:02;;;;;;;;;;;17.40;60.20;;;;;;5068437;28;1969;-69
2023/03/04 14:13:27;;;;;;;;;;;17.30;60.10;;;;;;5069479;28;972;-68
2023/03/04 14:15:54;;;;;;;;;;;17.30;60.10;;;;;;5040150;28;899;-68
2023/03/04 14:18:19;;;;;;;;;;;17.40;60.20;;;;;;5039112;28;920;-68
2023/03/04 14:20:48;;;;;;;;;;;17.30;60.20;;;;;;5071574;28;1248;-68
2023/03/04 14:23:43;;;;;;;;;;;17.30;60.20;;;;;;5039574;28;1306;-67
2023/03/04 14:26:09;;;;;;;;;;;17.30;60.20;;;;;;5037223;28;1387;-68
2023/03/04 14:28:41;;;;;;;;;;;17.30;60.20;;;;;;5040543;28;813;-68
2023/03/04 14:31:10;;;;;;;;;;;17.30;60.30;;;;;;5072440;28;1894;-69
2023/03/04 14:33:35;;;;;;;;;;;17.30;60.30;;;;;;5072752;28;819;-68
2023/03/04 14:36:01;;;;;;;;;;;17.30;60.30;;;;;;5042368;28;1412;-68
2023/03/04 14:38:30;;;;;;;;;;;17.30;60.30;;;;;;5073748;28;1407;-68